createdAt,value
2019-01-20T00:04:04.677Z,10.67
2019-01-20T00:08:19.761Z,14.40
2019-01-20T00:12:34.033Z,13.70
2019-01-20T00:16:48.901Z,17.33
2019-01-20T00:21:03.503Z,20.03
2019-01-20T00:25:17.830Z,13.00
2019-01-20T00:29:36.172Z,14.57
2019-01-20T00:33:51.054Z,15.17
2019-01-20T00:38:05.629Z,14.97
2019-01-20T00:42:20.329Z,14.80
2019-01-20T00:46:34.815Z,16.70
2019-01-20T00:50:49.307Z,12.23
2019-01-20T00:55:03.956Z,14.57
2019-01-20T00:59:20.603Z,15.13
2019-01-20T01:03:35.194Z,14.83
2019-01-20T01:07:49.792Z,18.83
2019-01-20T01:11:50.798Z,17.53
2019-01-20T01:16:12.962Z,18.53
2019-01-20T01:20:33.801Z,18.00
2019-01-20T01:24:54.649Z,13.07
2019-01-20T01:28:55.512Z,13.93
2019-01-20T01:33:16.217Z,11.63
2019-01-20T01:37:17.287Z,12.23
2019-01-20T01:41:18.363Z,13.47
2019-01-20T01:45:39.258Z,18.27
2019-01-20T01:50:00.016Z,12.60
2019-01-20T01:54:01.160Z,11.07
2019-01-20T01:58:21.897Z,13.83
2019-01-20T02:02:36.381Z,12.23
2019-01-20T02:06:50.715Z,12.63
2019-01-20T02:11:05.025Z,14.60
2019-01-20T02:15:19.747Z,11.83
2019-01-20T02:19:34.485Z,12.30
2019-01-20T02:23:35.512Z,13.07
2019-01-20T02:27:56.567Z,11.37
2019-01-20T02:32:11.185Z,13.77
2019-01-20T02:36:25.782Z,11.00
2019-01-20T02:40:40.338Z,14.63
2019-01-20T02:44:54.793Z,14.17
2019-01-20T02:49:09.244Z,13.73
2019-01-20T02:53:23.871Z,16.17
2019-01-20T02:57:38.450Z,11.23
2019-01-20T03:01:52.811Z,16.00
2019-01-20T03:06:07.359Z,16.60
2019-01-20T03:10:22.045Z,16.10
2019-01-20T03:14:36.788Z,13.27
2019-01-20T03:18:50.997Z,13.63
2019-01-20T03:23:05.346Z,14.57
2019-01-20T03:27:20.032Z,14.90
2019-01-20T03:31:34.415Z,13.33
2019-01-20T03:35:35.321Z,13.27
2019-01-20T03:39:36.330Z,13.97
2019-01-20T03:43:57.186Z,11.50
2019-01-20T03:48:18.021Z,13.60
2019-01-20T03:52:38.904Z,13.57
2019-01-20T03:56:59.842Z,14.20
2019-01-20T04:01:00.965Z,13.13
2019-01-20T04:05:21.925Z,15.80
2019-01-20T04:09:42.892Z,13.70
2019-01-20T04:14:03.741Z,13.10
2019-01-20T04:18:04.719Z,15.50
2019-01-20T04:22:05.684Z,19.93
2019-01-20T04:26:06.688Z,24.27
2019-01-20T04:30:27.680Z,15.60
2019-01-20T04:34:48.413Z,13.80
2019-01-20T04:39:09.128Z,13.63
2019-01-20T04:43:29.862Z,17.63
2019-01-20T04:47:50.734Z,20.83
2019-01-20T04:52:04.569Z,16.77
2019-01-20T04:56:18.414Z,16.97
2019-01-20T05:00:33.137Z,15.23
2019-01-20T05:04:47.881Z,19.93
2019-01-20T05:09:03.731Z,19.73
2019-01-20T05:13:17.772Z,20.33
2019-01-20T05:17:32.218Z,18.57
2019-01-20T05:21:46.829Z,21.10
2019-01-20T05:26:01.435Z,16.07
2019-01-20T05:30:16.212Z,20.37
2019-01-20T05:34:30.876Z,21.97
2019-01-20T05:38:45.502Z,18.20
2019-01-20T05:43:00.224Z,18.53
2019-01-20T05:47:14.799Z,15.70
2019-01-20T05:51:29.454Z,17.03
2019-01-20T05:55:44.048Z,15.80
2019-01-20T05:59:58.683Z,14.50
2019-01-20T06:04:12.446Z,16.87
2019-01-20T06:08:27.070Z,14.70
2019-01-20T06:12:41.034Z,17.77
2019-01-20T06:16:54.830Z,22.80
2019-01-20T06:21:09.445Z,17.83
2019-01-20T06:25:24.196Z,31.63
2019-01-20T06:29:38.868Z,21.63
2019-01-20T06:33:53.523Z,20.47
2019-01-20T06:38:08.059Z,23.97
2019-01-20T06:42:22.557Z,18.43
2019-01-20T06:46:37.298Z,14.33
2019-01-20T06:50:51.599Z,26.33
2019-01-20T06:55:06.212Z,35.87
2019-01-20T06:59:20.850Z,16.03
2019-01-20T07:03:35.554Z,24.03
2019-01-20T07:07:50.319Z,21.03
2019-01-20T07:12:04.724Z,17.93
2019-01-20T07:16:18.567Z,23.10
2019-01-20T07:20:33.082Z,22.83
2019-01-20T07:24:47.540Z,21.43
2019-01-20T07:29:02.117Z,21.20
2019-01-20T07:33:16.712Z,21.90
2019-01-20T07:37:31.020Z,20.77
2019-01-20T07:41:45.932Z,20.17
2019-01-20T07:50:25.655Z,20.13
2019-01-20T07:54:46.462Z,20.87
2019-01-20T07:58:47.770Z,20.03
2019-01-20T08:03:08.539Z,17.90
2019-01-20T08:07:29.690Z,17.13
2019-01-20T08:11:50.524Z,18.70
2019-01-20T08:16:11.411Z,17.53
2019-01-20T08:20:32.611Z,20.70
2019-01-20T08:24:53.588Z,19.73
2019-01-20T08:28:54.527Z,19.17
2019-01-20T08:32:55.624Z,17.20
2019-01-20T08:37:16.653Z,16.23
2019-01-20T08:41:37.674Z,20.10
2019-01-20T08:46:20.208Z,17.43
2019-01-20T08:50:34.822Z,20.43
2019-01-20T08:54:48.719Z,20.00
2019-01-20T08:59:03.209Z,22.60
2019-01-20T09:03:17.889Z,19.17
2019-01-20T09:07:18.960Z,24.87
2019-01-20T09:11:39.787Z,21.37
2019-01-20T09:16:00.677Z,18.67
2019-01-20T09:20:21.515Z,23.17
2019-01-20T09:24:42.319Z,23.77
2019-01-20T09:29:03.256Z,22.30
2019-01-20T09:33:24.536Z,27.90
2019-01-20T09:37:33.441Z,21.17
2019-01-20T09:41:47.832Z,21.43
2019-01-20T09:46:02.719Z,26.97
2019-01-20T09:50:17.405Z,23.20
2019-01-20T09:54:31.744Z,23.07
2019-01-20T09:58:46.458Z,21.77
2019-01-20T10:02:47.633Z,23.43
2019-01-20T10:07:08.512Z,25.47
2019-01-20T10:11:29.397Z,24.47
2019-01-20T10:15:52.392Z,21.17
2019-01-20T10:20:34.597Z,23.00
2019-01-20T10:24:35.591Z,22.47
2019-01-20T10:28:56.463Z,27.07
2019-01-20T10:33:17.445Z,26.97
2019-01-20T10:37:38.692Z,24.40
2019-01-20T10:41:39.530Z,24.53
2019-01-20T10:46:01.527Z,20.90
2019-01-20T10:50:22.370Z,22.17
2019-01-20T10:54:43.140Z,31.67
2019-01-20T10:59:04.093Z,24.43
2019-01-20T11:03:18.072Z,22.27
2019-01-20T11:07:32.305Z,26.77
2019-01-20T11:11:46.964Z,23.60
2019-01-20T11:16:01.427Z,27.63
2019-01-20T11:20:15.941Z,24.13
2019-01-20T11:24:30.548Z,33.40
2019-01-20T11:28:45.112Z,25.23
2019-01-20T11:32:46.215Z,24.83
2019-01-20T11:37:07.169Z,27.23
2019-01-20T11:41:08.969Z,26.47
2019-01-20T11:45:30.098Z,26.80
2019-01-20T11:50:12.901Z,26.63
2019-01-20T11:54:33.798Z,26.63
2019-01-20T12:03:17.265Z,24.70
2019-01-20T12:07:31.446Z,22.97
2019-01-20T12:11:46.107Z,25.37
2019-01-20T12:16:00.731Z,23.80
2019-01-20T12:20:15.377Z,22.10
2019-01-20T12:24:29.695Z,23.23
2019-01-20T12:28:44.535Z,22.67
2019-01-20T12:32:59.006Z,22.87
2019-01-20T12:37:13.471Z,21.57
2019-01-20T12:41:28.002Z,20.80
2019-01-20T12:45:44.506Z,20.87
2019-01-20T12:50:02.843Z,21.83
2019-01-20T12:54:17.796Z,20.37
2019-01-20T12:58:34.690Z,21.13
2019-01-20T13:02:49.369Z,24.67
2019-01-20T13:07:03.799Z,29.60
2019-01-20T13:11:18.388Z,26.07
2019-01-20T13:15:33.199Z,23.97
2019-01-20T13:19:49.644Z,25.00
2019-01-20T13:24:04.869Z,28.80
2019-01-20T13:28:20.006Z,27.63
2019-01-20T13:32:35.147Z,28.47
2019-01-20T13:36:50.009Z,30.10
2019-01-20T13:41:04.511Z,27.33
2019-01-20T13:45:19.275Z,30.93
2019-01-20T13:49:34.061Z,26.60
2019-01-20T13:53:48.540Z,27.97
2019-01-20T13:58:03.265Z,24.07
2019-01-20T14:02:17.436Z,27.33
2019-01-20T14:06:31.724Z,25.67
2019-01-20T14:10:45.884Z,23.97
2019-01-20T14:15:00.565Z,25.53
2019-01-20T14:19:21.518Z,29.97
2019-01-20T14:23:31.817Z,31.20
2019-01-20T14:27:46.727Z,24.60
2019-01-20T14:32:01.145Z,24.63
2019-01-20T14:36:15.723Z,27.83
2019-01-20T14:40:30.049Z,25.60
2019-01-20T14:44:44.555Z,26.47
2019-01-20T14:48:45.477Z,26.97
2019-01-20T14:52:59.654Z,28.47
2019-01-20T14:57:14.274Z,28.50
2019-01-20T15:01:15.334Z,32.10
2019-01-20T15:05:36.199Z,28.63
2019-01-20T15:09:56.979Z,30.17
2019-01-20T15:14:17.804Z,29.23
2019-01-20T15:18:19.365Z,25.60
2019-01-20T15:22:40.849Z,27.43
2019-01-20T15:27:01.724Z,26.73
2019-01-20T15:31:22.554Z,27.73
2019-01-20T15:35:24.062Z,26.90
2019-01-20T15:39:44.948Z,23.80
2019-01-20T15:44:05.884Z,27.90
2019-01-20T15:48:06.841Z,36.03
2019-01-20T15:52:21.566Z,28.40
2019-01-20T15:56:37.681Z,26.03
2019-01-20T16:00:51.890Z,27.20
2019-01-20T16:05:06.390Z,27.63
2019-01-20T16:09:48.932Z,27.60
2019-01-20T16:13:50.005Z,27.77
2019-01-20T16:18:32.519Z,25.37
2019-01-20T16:22:53.365Z,28.30
2019-01-20T16:26:54.470Z,28.38
2019-01-20T16:31:15.259Z,28.70
2019-01-20T16:35:32.283Z,30.80
2019-01-20T16:39:46.990Z,27.50
2019-01-20T16:44:01.819Z,28.55
2019-01-20T16:48:15.788Z,32.60
2019-01-20T16:52:29.638Z,36.13
2019-01-20T16:56:44.445Z,35.63
2019-01-20T17:00:58.582Z,29.10
2019-01-20T17:04:59.588Z,36.70
2019-01-20T17:09:20.469Z,38.70
2019-01-20T17:13:41.277Z,40.83
2019-01-20T17:18:02.313Z,32.20
2019-01-20T17:22:23.099Z,38.50
2019-01-20T17:31:26.449Z,41.90
2019-01-20T17:35:47.430Z,30.80
2019-01-20T17:39:48.559Z,41.20
2019-01-20T17:44:09.516Z,37.87
2019-01-20T17:48:30.359Z,35.70
2019-01-20T17:52:51.293Z,38.77
2019-01-20T17:56:52.371Z,34.13
2019-01-20T18:01:07.178Z,34.00
2019-01-20T18:05:21.395Z,35.23
2019-01-20T18:09:36.086Z,36.27
2019-01-20T18:13:50.684Z,35.83
2019-01-20T18:18:05.539Z,33.80
2019-01-20T18:22:20.202Z,39.63
2019-01-20T18:26:21.274Z,36.90
2019-01-20T18:30:42.112Z,42.17
2019-01-20T18:34:56.081Z,38.50
2019-01-20T18:39:10.742Z,40.40
2019-01-20T18:43:25.469Z,42.03
2019-01-20T18:47:26.522Z,44.07
2019-01-20T18:51:27.606Z,49.73
2019-01-20T18:55:48.345Z,51.20
2019-01-20T19:00:28.967Z,44.97
2019-01-20T19:04:43.540Z,44.03
2019-01-20T19:08:57.667Z,45.30
2019-01-20T19:13:12.048Z,48.63
2019-01-20T19:17:26.510Z,45.53
2019-01-20T19:21:40.972Z,40.80
2019-01-20T19:25:55.389Z,37.43
2019-01-20T19:30:09.903Z,40.30
2019-01-20T19:34:28.192Z,35.80
2019-01-20T19:38:43.041Z,45.50
2019-01-20T19:42:44.168Z,43.67
2019-01-20T19:47:04.954Z,58.50
2019-01-20T19:51:25.752Z,49.97
2019-01-20T19:55:46.639Z,50.17
2019-01-20T20:00:29.178Z,44.10
2019-01-20T20:04:43.448Z,45.63
2019-01-20T20:08:57.261Z,48.57
2019-01-20T20:13:15.813Z,47.23
2019-01-20T20:17:29.707Z,43.03
2019-01-20T20:21:44.339Z,44.73
2019-01-20T20:25:59.188Z,57.87
2019-01-20T20:30:13.983Z,57.60
2019-01-20T20:34:28.261Z,52.23
2019-01-20T20:38:42.165Z,117.03
2019-01-20T20:42:58.062Z,74.63
2019-01-20T20:47:13.063Z,66.13
2019-01-20T20:51:27.810Z,58.50
2019-01-20T20:55:42.541Z,58.40
2019-01-20T20:59:57.233Z,50.23
2019-01-20T21:04:11.811Z,42.17
2019-01-20T21:08:12.839Z,47.37
2019-01-20T21:12:33.912Z,54.40
2019-01-20T21:16:54.881Z,65.83
2019-01-20T21:20:56.091Z,61.67
2019-01-20T21:24:57.642Z,60.33
2019-01-20T21:29:18.396Z,66.73
2019-01-20T21:33:42.316Z,58.00
2019-01-20T21:37:43.938Z,64.03
2019-01-20T21:41:46.150Z,55.63
2019-01-20T21:45:48.172Z,51.10
2019-01-20T21:49:49.677Z,57.40
2019-01-20T21:54:10.602Z,55.47
2019-01-20T21:58:11.480Z,58.87
2019-01-20T22:02:25.996Z,68.67
2019-01-20T22:06:27.106Z,65.77
2019-01-20T22:10:48.792Z,70.57
2019-01-20T22:15:10.168Z,67.33
2019-01-20T22:19:11.124Z,57.77
2019-01-20T22:23:11.994Z,51.70
2019-01-20T22:27:32.769Z,55.70
2019-01-20T22:31:33.681Z,57.13
2019-01-20T22:35:54.464Z,54.23
2019-01-20T22:39:55.319Z,50.50
2019-01-20T22:43:56.308Z,53.93
2019-01-20T22:48:17.069Z,54.23
2019-01-20T22:52:38.017Z,67.47
2019-01-20T22:56:58.808Z,55.27
2019-01-20T23:01:13.096Z,71.63
2019-01-20T23:05:27.624Z,63.53
2019-01-20T23:09:41.945Z,58.13
2019-01-20T23:13:56.649Z,55.70
2019-01-20T23:18:11.288Z,52.53
2019-01-20T23:22:25.845Z,44.87
2019-01-20T23:26:40.276Z,37.63
2019-01-20T23:30:55.386Z,39.90
2019-01-20T23:35:09.804Z,41.20
2019-01-20T23:39:24.152Z,43.30
2019-01-20T23:43:38.890Z,53.67
2019-01-20T23:47:53.476Z,48.23
2019-01-20T23:52:08.124Z,48.40
2019-01-20T23:56:22.880Z,50.43
